createdAt,value
2019-04-22T00:01:43.590Z,27.07
2019-04-22T00:04:27.005Z,26.48
2019-04-22T00:07:12.086Z,27.37
2019-04-22T00:09:54.850Z,28.20
2019-04-22T00:12:32.713Z,26.60
2019-04-22T00:14:52.501Z,25.80
2019-04-22T00:17:38.760Z,26.62
2019-04-22T00:20:04.978Z,26.50
2019-04-22T00:22:38.746Z,26.93
2019-04-22T00:25:14.372Z,30.73
2019-04-22T00:27:48.976Z,28.10
2019-04-22T00:32:49.986Z,27.98
2019-04-22T00:35:23.742Z,28.07
2019-04-22T00:38:09.240Z,28.33
2019-04-22T00:40:39.675Z,28.52
2019-04-22T00:43:13.592Z,29.37
2019-04-22T00:45:43.057Z,30.65
2019-04-22T00:48:22.379Z,32.33
2019-04-22T00:53:37.227Z,42.27
2019-04-22T00:56:09.427Z,40.28
2019-04-22T00:58:39.768Z,38.40
2019-04-22T01:01:14.098Z,40.57
2019-04-22T01:03:51.010Z,40.03
2019-04-22T01:06:21.504Z,42.62
2019-04-22T01:08:57.781Z,41.02
2019-04-22T01:11:29.100Z,53.60
2019-04-22T01:14:13.101Z,44.25
2019-04-22T01:16:37.958Z,43.83
2019-04-22T01:19:06.551Z,46.00
2019-04-22T01:21:39.178Z,45.27
2019-04-22T01:24:12.111Z,64.25
2019-04-22T01:26:42.212Z,55.10
2019-04-22T01:29:09.395Z,54.63
2019-04-22T01:31:34.388Z,53.05
2019-04-22T01:34:21.999Z,54.48
2019-04-22T01:37:00.086Z,53.07
2019-04-22T01:39:37.620Z,56.50
2019-04-22T01:44:58.157Z,51.60
2019-04-22T01:47:18.590Z,50.85
2019-04-22T01:49:52.726Z,52.58
2019-04-22T01:52:20.255Z,53.78
2019-04-22T01:55:07.402Z,55.58
2019-04-22T01:57:28.857Z,67.45
2019-04-22T01:59:59.035Z,53.00
2019-04-22T02:05:16.030Z,63.70
2019-04-22T02:07:45.076Z,64.53
2019-04-22T02:10:22.846Z,52.25
2019-04-22T02:12:55.470Z,50.60
2019-04-22T02:15:24.052Z,49.53
2019-04-22T02:18:01.363Z,48.13
2019-04-22T02:20:37.191Z,49.60
2019-04-22T02:23:35.306Z,47.17
2019-04-22T02:25:49.874Z,48.42
2019-04-22T02:28:28.344Z,42.27
2019-04-22T02:36:19.335Z,42.53
2019-04-22T02:44:06.665Z,47.03
2019-04-22T02:46:41.290Z,47.55
2019-04-22T02:59:11.617Z,60.70
2019-04-22T03:04:22.657Z,60.63
2019-04-22T03:06:57.302Z,55.43
2019-04-22T03:09:24.120Z,53.20
2019-04-22T03:12:09.667Z,51.20
2019-04-22T03:14:30.153Z,49.20
2019-04-22T03:24:53.864Z,48.73
2019-04-22T03:27:20.025Z,52.55
2019-04-22T03:30:18.750Z,50.55
2019-04-22T03:32:59.543Z,48.10
2019-04-22T03:40:13.974Z,46.58
2019-04-22T03:42:53.720Z,72.50
2019-04-22T03:47:57.502Z,47.48
2019-04-22T03:50:24.914Z,44.53
2019-04-22T03:53:05.845Z,44.20
2019-04-22T03:55:29.140Z,42.10
2019-04-22T03:57:56.953Z,41.23
2019-04-22T04:00:55.538Z,54.53
2019-04-22T04:03:15.075Z,60.85
2019-04-22T04:08:26.760Z,43.33
2019-04-22T04:13:23.022Z,41.28
2019-04-22T04:15:57.598Z,41.15
2019-04-22T04:18:46.865Z,40.50
2019-04-22T04:21:20.840Z,41.08
2019-04-22T04:26:33.609Z,45.52
2019-04-22T04:31:33.603Z,50.17
2019-04-22T04:34:03.675Z,41.30
2019-04-22T04:36:35.576Z,40.20
2019-04-22T04:39:05.624Z,40.43
2019-04-22T04:46:49.849Z,47.35
2019-04-22T04:49:24.568Z,78.05
2019-04-22T04:51:56.143Z,43.08
2019-04-22T04:54:31.736Z,42.55
2019-04-22T04:56:55.986Z,39.30
2019-04-22T05:00:02.514Z,39.63
2019-04-22T05:02:10.031Z,46.88
2019-04-22T05:07:19.633Z,84.58
2019-04-22T05:09:47.454Z,38.55
2019-04-22T05:12:42.820Z,38.78
2019-04-22T05:14:55.005Z,39.45
2019-04-22T05:20:05.234Z,37.67
2019-04-22T05:22:34.071Z,38.30
2019-04-22T05:25:17.883Z,38.75
2019-04-22T05:35:20.684Z,36.73
2019-04-22T05:37:56.521Z,36.87
2019-04-22T05:40:38.823Z,37.13
2019-04-22T05:43:01.876Z,38.05
2019-04-22T05:45:31.388Z,37.45
2019-04-22T05:48:15.788Z,36.00
2019-04-22T05:50:47.291Z,34.73
2019-04-22T05:53:13.210Z,33.18
2019-04-22T05:55:59.749Z,35.78
2019-04-22T05:58:22.560Z,37.25
2019-04-22T06:01:36.550Z,37.65
2019-04-22T06:03:39.016Z,37.43
2019-04-22T06:06:09.286Z,37.20
2019-04-22T06:08:44.469Z,37.83
2019-04-22T06:11:24.457Z,36.63
2019-04-22T06:13:38.954Z,36.98
2019-04-22T06:16:20.549Z,37.42
2019-04-22T06:19:01.640Z,36.03
2019-04-22T06:21:35.822Z,35.95
2019-04-22T06:26:46.277Z,36.30
2019-04-22T06:32:05.540Z,36.23
2019-04-22T06:36:53.976Z,34.30
2019-04-22T06:39:27.879Z,35.07
2019-04-22T06:42:16.397Z,36.40
2019-04-22T06:44:53.908Z,35.58
2019-04-22T06:47:28.744Z,37.08
2019-04-22T06:49:57.282Z,37.23
2019-04-22T06:52:22.815Z,36.35
2019-04-22T06:57:36.632Z,35.50
2019-04-22T07:00:10.698Z,36.13
2019-04-22T07:02:56.423Z,35.80
2019-04-22T07:05:14.408Z,35.45
2019-04-22T07:07:53.487Z,34.98
2019-04-22T07:12:54.327Z,35.17
2019-04-22T07:15:46.546Z,35.13
2019-04-22T07:18:09.038Z,26.82
2019-04-22T07:20:36.768Z,26.90
2019-04-22T07:23:13.620Z,26.73
2019-04-22T07:28:17.704Z,28.25
2019-04-22T07:30:52.851Z,27.20
2019-04-22T07:36:25.714Z,19.73
2019-04-22T07:41:08.359Z,15.23
2019-04-22T07:46:13.797Z,12.20
2019-04-22T07:51:20.448Z,12.57
2019-04-22T07:53:55.851Z,13.20
2019-04-22T07:56:27.919Z,13.68
2019-04-22T07:59:07.377Z,15.73
2019-04-22T08:01:30.597Z,19.53
2019-04-22T08:04:16.032Z,24.92
2019-04-22T08:06:47.795Z,25.40
2019-04-22T08:09:20.303Z,24.57
2019-04-22T08:14:28.349Z,19.98
2019-04-22T08:17:14.369Z,23.60
2019-04-22T08:19:52.099Z,23.52
2019-04-22T08:22:01.467Z,38.10
2019-04-22T08:24:45.585Z,23.85
2019-04-22T08:27:10.348Z,20.80
2019-04-22T08:29:52.306Z,18.45
2019-04-22T08:32:21.708Z,17.32
2019-04-22T08:34:47.575Z,18.98
2019-04-22T08:40:09.569Z,16.27
2019-04-22T08:42:43.511Z,14.38
2019-04-22T08:50:18.572Z,14.97
2019-04-22T08:52:54.384Z,14.13
2019-04-22T08:55:28.963Z,14.87
2019-04-22T08:58:14.954Z,17.57
2019-04-22T09:00:34.194Z,28.53
2019-04-22T09:03:08.845Z,23.22
2019-04-22T09:05:52.122Z,15.72
2019-04-22T09:10:46.716Z,17.37
2019-04-22T09:13:41.664Z,20.85
2019-04-22T09:15:49.402Z,15.98
2019-04-22T09:18:21.733Z,17.25
2019-04-22T09:21:07.105Z,17.75
2019-04-22T09:23:38.453Z,17.85
2019-04-22T09:26:03.490Z,16.07
2019-04-22T09:28:37.682Z,24.52
2019-04-22T09:31:11.113Z,43.20
2019-04-22T09:33:43.383Z,17.73
2019-04-22T09:36:24.578Z,50.88
2019-04-22T09:38:46.945Z,16.75
2019-04-22T09:41:27.160Z,20.80
2019-04-22T09:43:56.734Z,21.90
2019-04-22T09:46:39.018Z,22.62
2019-04-22T09:49:12.244Z,23.30
2019-04-22T09:51:40.037Z,23.03
2019-04-22T09:56:50.106Z,22.27
2019-04-22T09:59:25.233Z,20.68
2019-04-22T10:04:33.092Z,18.30
2019-04-22T10:07:05.137Z,19.70
2019-04-22T10:09:52.781Z,18.85
2019-04-22T10:12:15.405Z,19.50
2019-04-22T10:14:48.000Z,21.35
2019-04-22T10:17:15.472Z,21.37
2019-04-22T10:19:46.851Z,22.87
2019-04-22T10:22:32.134Z,21.27
2019-04-22T10:24:57.011Z,21.33
2019-04-22T10:27:32.513Z,20.45
2019-04-22T10:30:08.879Z,20.50
2019-04-22T10:32:37.651Z,20.52
2019-04-22T10:34:57.257Z,18.70
2019-04-22T10:37:25.678Z,19.32
2019-04-22T10:40:02.344Z,20.92
2019-04-22T10:42:33.586Z,23.55
2019-04-22T10:45:08.173Z,19.05
2019-04-22T10:47:42.259Z,24.35
2019-04-22T10:50:16.554Z,23.07
2019-04-22T10:52:49.695Z,18.10
2019-04-22T10:55:23.488Z,17.77
2019-04-22T10:57:56.750Z,18.10
2019-04-22T11:00:29.310Z,17.52
2019-04-22T11:03:02.392Z,16.67
2019-04-22T11:05:34.725Z,14.87
2019-04-22T11:08:08.502Z,18.25
2019-04-22T11:10:56.295Z,21.12
2019-04-22T11:13:15.796Z,22.75
2019-04-22T11:15:48.782Z,13.97
2019-04-22T11:18:23.151Z,14.05
2019-04-22T11:20:55.797Z,14.78
2019-04-22T11:23:28.808Z,15.80
2019-04-22T11:26:01.775Z,13.78
2019-04-22T11:28:33.995Z,16.02
2019-04-22T11:31:06.468Z,16.40
2019-04-22T11:33:38.717Z,16.37
2019-04-22T11:36:10.833Z,16.20
2019-04-22T11:38:48.662Z,14.93
2019-04-22T11:41:16.822Z,33.15
2019-04-22T11:43:49.457Z,16.93
2019-04-22T11:46:23.086Z,18.48
2019-04-22T11:48:56.023Z,21.20
2019-04-22T11:51:29.637Z,17.20
2019-04-22T11:54:02.908Z,18.12
2019-04-22T11:56:36.723Z,17.42
2019-04-22T11:59:10.935Z,17.55
2019-04-22T12:01:44.551Z,23.80
2019-04-22T12:04:17.880Z,24.67
2019-04-22T12:06:50.101Z,31.73
2019-04-22T12:09:23.803Z,20.80
2019-04-22T12:11:56.038Z,18.50
2019-04-22T12:14:29.887Z,17.90
2019-04-22T12:17:01.845Z,17.80
2019-04-22T12:19:35.248Z,17.92
2019-04-22T12:22:10.983Z,18.20
2019-04-22T12:24:43.262Z,17.32
2019-04-22T12:27:17.440Z,17.12
2019-04-22T12:29:49.246Z,41.55
2019-04-22T12:32:23.229Z,24.20
2019-04-22T12:34:55.601Z,20.37
2019-04-22T12:37:34.393Z,24.40
2019-04-22T12:40:02.665Z,24.35
2019-04-22T12:42:35.386Z,17.40
2019-04-22T12:45:09.922Z,15.48
2019-04-22T12:47:42.258Z,15.85
2019-04-22T12:50:24.107Z,15.10
2019-04-22T12:52:57.673Z,14.73
2019-04-22T12:55:26.054Z,15.27
2019-04-22T12:58:00.819Z,22.97
2019-04-22T13:00:32.323Z,16.17
2019-04-22T13:03:05.213Z,22.62
2019-04-22T13:05:37.648Z,14.78
2019-04-22T13:08:09.884Z,14.85
2019-04-22T13:10:53.359Z,11.93
2019-04-22T13:13:15.762Z,12.80
2019-04-22T13:15:48.957Z,17.23
2019-04-22T13:18:31.780Z,19.70
2019-04-22T13:20:56.664Z,17.35
2019-04-22T13:23:29.840Z,15.08
2019-04-22T13:26:03.004Z,13.10
2019-04-22T13:28:36.709Z,11.22
2019-04-22T13:31:09.794Z,12.30
2019-04-22T13:33:43.052Z,38.40
2019-04-22T13:36:15.925Z,45.12
2019-04-22T13:38:49.200Z,16.85
2019-04-22T13:41:31.076Z,28.02
2019-04-22T13:56:51.876Z,12.45
2019-04-22T13:59:23.011Z,12.45
2019-04-22T14:01:46.455Z,13.77
2019-04-22T14:04:20.603Z,41.00
2019-04-22T14:06:54.500Z,14.20
2019-04-22T14:09:26.514Z,20.37
2019-04-22T14:12:05.275Z,12.68
2019-04-22T14:14:33.605Z,12.10
2019-04-22T14:17:07.051Z,11.38
2019-04-22T14:19:39.725Z,11.08
2019-04-22T14:22:12.097Z,10.60
2019-04-22T14:24:44.900Z,11.05
2019-04-22T14:27:27.911Z,10.95
2019-04-22T14:29:51.552Z,10.67
2019-04-22T14:32:27.551Z,10.25
2019-04-22T14:34:58.770Z,11.03
2019-04-22T14:37:32.048Z,10.25
2019-04-22T14:40:08.786Z,9.30
2019-04-22T14:42:56.918Z,10.25
2019-04-22T14:45:44.537Z,10.38
2019-04-22T14:48:10.974Z,10.93
2019-04-22T14:50:43.821Z,10.30
2019-04-22T14:53:15.725Z,11.38
2019-04-22T14:55:29.620Z,11.57
2019-04-22T14:57:59.395Z,10.43
2019-04-22T15:00:31.808Z,9.70
2019-04-22T15:03:05.749Z,8.80
2019-04-22T15:05:37.947Z,8.23
2019-04-22T15:08:10.965Z,9.13
2019-04-22T15:10:44.123Z,10.93
2019-04-22T15:13:17.751Z,11.43
2019-04-22T15:15:52.906Z,8.53
2019-04-22T15:18:28.299Z,6.17
2019-04-22T15:21:02.727Z,6.93
2019-04-22T15:23:35.094Z,7.10
2019-04-22T15:26:08.433Z,6.60
2019-04-22T15:28:41.759Z,6.70
2019-04-22T15:31:15.197Z,10.85
2019-04-22T15:33:50.195Z,14.60
2019-04-22T15:36:22.259Z,9.03
2019-04-22T15:38:55.608Z,5.62
2019-04-22T15:41:28.567Z,11.25
2019-04-22T15:44:01.872Z,10.53
2019-04-22T15:46:34.965Z,6.42
2019-04-22T15:49:07.385Z,8.33
2019-04-22T15:51:40.859Z,5.62
2019-04-22T15:54:13.887Z,5.03
2019-04-22T15:56:46.552Z,4.97
2019-04-22T15:59:38.858Z,4.60
2019-04-22T16:01:53.174Z,4.55
2019-04-22T16:04:26.327Z,4.37
2019-04-22T16:06:59.044Z,4.50
2019-04-22T16:09:31.368Z,4.62
2019-04-22T16:12:15.110Z,4.05
2019-04-22T16:14:43.834Z,3.90
2019-04-22T16:17:12.586Z,8.08
2019-04-22T16:19:45.358Z,6.58
2019-04-22T16:22:19.722Z,5.95
2019-04-22T16:24:54.138Z,6.83
2019-04-22T16:27:27.778Z,7.30
2019-04-22T16:30:01.179Z,7.42
2019-04-22T16:32:33.947Z,7.80
2019-04-22T16:35:06.826Z,8.10
2019-04-22T16:37:39.052Z,7.27
2019-04-22T16:40:12.572Z,7.90
2019-04-22T16:42:51.519Z,7.47
2019-04-22T16:45:19.877Z,7.10
2019-04-22T16:47:53.501Z,9.38
2019-04-22T16:50:41.234Z,8.68
2019-04-22T16:53:13.792Z,17.20
2019-04-22T16:55:46.623Z,6.17
2019-04-22T16:58:18.946Z,6.00
2019-04-22T17:00:52.344Z,5.70
2019-04-22T17:03:26.823Z,5.47
2019-04-22T17:06:01.360Z,5.50
2019-04-22T17:08:34.754Z,12.25
2019-04-22T17:11:07.543Z,17.90
2019-04-22T17:13:40.365Z,11.45
2019-04-22T17:16:13.853Z,6.60
2019-04-22T17:18:47.105Z,6.70
2019-04-22T17:21:19.704Z,7.33
2019-04-22T17:23:51.931Z,7.60
2019-04-22T17:26:24.335Z,7.62
2019-04-22T17:28:58.704Z,7.10
2019-04-22T17:31:31.280Z,7.80
2019-04-22T17:34:04.720Z,7.97
2019-04-22T17:36:38.301Z,7.90
2019-04-22T17:39:22.843Z,7.70
2019-04-22T17:42:03.434Z,7.85
2019-04-22T17:44:46.511Z,6.58
2019-04-22T17:47:04.941Z,7.47
2019-04-22T17:49:53.740Z,9.83
2019-04-22T17:52:27.689Z,8.68
2019-04-22T17:54:51.727Z,9.30
2019-04-22T17:57:31.617Z,8.23
2019-04-22T18:00:01.535Z,8.18
2019-04-22T18:02:38.854Z,13.05
2019-04-22T18:04:56.186Z,14.60
2019-04-22T18:07:42.734Z,7.50
2019-04-22T18:13:04.396Z,7.00
2019-04-22T18:15:27.495Z,21.85
2019-04-22T18:18:09.103Z,13.48
2019-04-22T18:20:27.542Z,9.63
2019-04-22T18:22:54.314Z,8.13
2019-04-22T18:25:41.718Z,7.70
2019-04-22T18:28:17.594Z,7.47
2019-04-22T18:30:37.350Z,7.20
2019-04-22T18:33:20.809Z,29.47
2019-04-22T18:35:49.087Z,8.73
2019-04-22T18:38:39.696Z,7.47
2019-04-22T18:41:03.523Z,7.47
2019-04-22T18:43:32.891Z,6.85
2019-04-22T18:46:09.487Z,7.08
2019-04-22T18:48:42.541Z,7.40
2019-04-22T18:51:18.529Z,7.78
2019-04-22T18:53:53.816Z,7.42
2019-04-22T18:56:31.510Z,6.90
2019-04-22T18:58:51.380Z,7.42
2019-04-22T19:01:13.086Z,8.23
2019-04-22T19:03:55.232Z,12.78
2019-04-22T19:09:17.046Z,7.50
2019-04-22T19:11:52.107Z,8.00
2019-04-22T19:14:37.226Z,7.97
2019-04-22T19:16:54.371Z,11.18
2019-04-22T19:21:57.792Z,7.75
2019-04-22T19:24:31.912Z,7.35
2019-04-22T19:27:12.777Z,7.67
2019-04-22T19:29:44.783Z,6.90
2019-04-22T19:32:18.486Z,6.92
2019-04-22T19:34:47.866Z,6.92
2019-04-22T19:37:17.346Z,7.33
2019-04-22T19:40:03.520Z,7.80
2019-04-22T19:42:38.149Z,6.28
2019-04-22T19:45:01.254Z,7.25
2019-04-22T19:47:56.829Z,7.53
2019-04-22T19:50:19.188Z,6.97
2019-04-22T19:52:43.589Z,7.12
2019-04-22T19:55:21.861Z,8.73
2019-04-22T19:57:52.510Z,8.20
2019-04-22T20:00:19.953Z,7.60
2019-04-22T20:03:09.462Z,7.62
2019-04-22T20:05:37.243Z,6.80
2019-04-22T20:08:14.529Z,7.45
2019-04-22T20:10:44.274Z,7.78
2019-04-22T20:13:24.607Z,8.00
2019-04-22T20:15:43.783Z,7.55
2019-04-22T20:21:03.970Z,7.90
2019-04-22T20:23:25.642Z,8.48
2019-04-22T20:26:01.429Z,7.97
2019-04-22T20:28:44.998Z,7.78
2019-04-22T20:31:14.762Z,8.73
2019-04-22T20:33:51.348Z,8.45
2019-04-22T20:36:41.181Z,8.45
2019-04-22T20:38:53.629Z,8.60
2019-04-22T20:41:26.522Z,8.03
2019-04-22T20:44:04.682Z,8.73
2019-04-22T20:46:36.077Z,9.05
2019-04-22T20:49:11.700Z,8.13
2019-04-22T20:51:53.690Z,8.28
2019-04-22T20:54:17.426Z,8.70
2019-04-22T20:56:45.075Z,8.73
2019-04-22T20:59:19.046Z,8.50
2019-04-22T21:01:56.350Z,8.68
2019-04-22T21:04:18.254Z,8.08
2019-04-22T21:07:01.876Z,8.75
2019-04-22T21:09:36.716Z,9.23
2019-04-22T21:12:05.102Z,8.70
2019-04-22T21:14:44.065Z,8.55
2019-04-22T21:17:17.274Z,8.38
2019-04-22T21:20:09.973Z,7.45
2019-04-22T21:22:29.089Z,7.97
2019-04-22T21:24:54.975Z,7.28
2019-04-22T21:27:34.418Z,7.67
2019-04-22T21:29:58.242Z,7.58
2019-04-22T21:32:43.877Z,7.33
2019-04-22T21:35:21.548Z,8.18
2019-04-22T21:37:57.068Z,7.58
2019-04-22T21:40:23.020Z,7.80
2019-04-22T21:42:59.835Z,8.08
2019-04-22T21:45:24.928Z,7.45
2019-04-22T21:48:11.498Z,7.87
2019-04-22T21:53:14.558Z,8.23
2019-04-22T21:55:50.444Z,8.30
2019-04-22T21:58:22.933Z,7.67
2019-04-22T22:01:02.547Z,8.07
2019-04-22T22:03:30.045Z,9.00
2019-04-22T22:05:54.434Z,8.70
2019-04-22T22:08:38.732Z,8.63
2019-04-22T22:11:08.175Z,9.53
2019-04-22T22:13:39.254Z,11.20
2019-04-22T22:16:10.299Z,11.17
2019-04-22T22:18:52.779Z,9.78
2019-04-22T22:23:59.629Z,9.28
2019-04-22T22:26:38.456Z,9.45
2019-04-22T22:29:08.899Z,10.00
2019-04-22T22:31:44.378Z,9.58
2019-04-22T22:34:13.630Z,9.90
2019-04-22T22:36:36.358Z,10.03
2019-04-22T22:39:07.629Z,9.93
2019-04-22T22:41:31.854Z,10.58
2019-04-22T22:44:15.371Z,15.78
2019-04-22T22:46:55.992Z,22.10
2019-04-22T22:49:32.986Z,14.30
2019-04-22T22:52:31.736Z,13.00
2019-04-22T22:54:40.595Z,10.37
2019-04-22T22:59:45.858Z,10.18
2019-04-22T23:02:20.271Z,13.70
2019-04-22T23:04:54.457Z,16.48
2019-04-22T23:07:33.429Z,12.50
2019-04-22T23:10:05.071Z,11.05
2019-04-22T23:12:40.590Z,11.55
2019-04-22T23:15:06.625Z,10.98
2019-04-22T23:17:25.560Z,11.28
2019-04-22T23:19:56.061Z,11.85
2019-04-22T23:22:39.606Z,11.60
2019-04-22T23:25:25.165Z,11.08
2019-04-22T23:27:52.785Z,10.70
2019-04-22T23:30:21.527Z,10.70
2019-04-22T23:33:03.293Z,10.00
2019-04-22T23:35:36.508Z,10.23
2019-04-22T23:38:13.775Z,10.48
2019-04-22T23:40:42.546Z,9.85
2019-04-22T23:43:44.845Z,10.10
2019-04-22T23:46:13.491Z,10.03
2019-04-22T23:48:39.122Z,10.18
2019-04-22T23:51:19.329Z,10.00
2019-04-22T23:56:27.982Z,10.53
2019-04-22T23:59:07.080Z,10.40
